sensor_id;sensor_type;location;lat;lon;timestamp;P1;durP1;ratioP1;P2;durP2;ratioP2
10643;SDS011;5370;50.132;8.626;2024-03-06T00:01:54;17.33;;;13.27;;
10643;SDS011;5370;50.132;8.626;2024-03-06T00:04:19;19.50;;;14.20;;
10643;SDS011;5370;50.132;8.626;2024-03-06T00:06:45;19.20;;;13.17;;
10643;SDS011;5370;50.132;8.626;2024-03-06T00:09:10;18.60;;;12.77;;
10643;SDS011;5370;50.132;8.626;2024-03-06T00:11:36;18.87;;;13.17;;
10643;SDS011;5370;50.132;8.626;2024-03-06T00:14:02;16.77;;;13.13;;
10643;SDS011;5370;50.132;8.626;2024-03-06T00:16:30;17.30;;;12.50;;
10643;SDS011;5370;50.132;8.626;2024-03-06T00:18:56;19.10;;;13.73;;
10643;SDS011;5370;50.132;8.626;2024-03-06T00:21:21;21.03;;;14.10;;
10643;SDS011;5370;50.132;8.626;2024-03-06T00:23:47;18.47;;;13.80;;
10643;SDS011;5370;50.132;8.626;2024-03-06T00:26:12;21.20;;;13.87;;
10643;SDS011;5370;50.132;8.626;2024-03-06T00:28:38;22.47;;;14.40;;
10643;SDS011;5370;50.132;8.626;2024-03-06T00:31:06;18.17;;;14.20;;
10643;SDS011;5370;50.132;8.626;2024-03-06T00:33:32;18.77;;;14.13;;
10643;SDS011;5370;50.132;8.626;2024-03-06T00:35:58;20.30;;;13.93;;
10643;SDS011;5370;50.132;8.626;2024-03-06T00:38:23;20.70;;;14.40;;
10643;SDS011;5370;50.132;8.626;2024-03-06T00:40:49;20.37;;;15.03;;
10643;SDS011;5370;50.132;8.626;2024-03-06T00:43:14;17.70;;;14.13;;
10643;SDS011;5370;50.132;8.626;2024-03-06T00:45:40;18.77;;;14.07;;
10643;SDS011;5370;50.132;8.626;2024-03-06T00:48:06;23.77;;;13.87;;
10643;SDS011;5370;50.132;8.626;2024-03-06T00:50:32;24.70;;;17.00;;
10643;SDS011;5370;50.132;8.626;2024-03-06T00:52:58;21.83;;;14.57;;
10643;SDS011;5370;50.132;8.626;2024-03-06T00:55:24;23.47;;;16.47;;
10643;SDS011;5370;50.132;8.626;2024-03-06T00:57:49;35.57;;;23.47;;
10643;SDS011;5370;50.132;8.626;2024-03-06T01:00:15;34.13;;;22.90;;
10643;SDS011;5370;50.132;8.626;2024-03-06T01:02:41;29.43;;;20.13;;
10643;SDS011;5370;50.132;8.626;2024-03-06T01:05:06;29.70;;;20.23;;
10643;SDS011;5370;50.132;8.626;2024-03-06T01:07:32;25.73;;;17.47;;
10643;SDS011;5370;50.132;8.626;2024-03-06T01:09:58;26.90;;;17.80;;
10643;SDS011;5370;50.132;8.626;2024-03-06T01:12:24;24.53;;;16.57;;
10643;SDS011;5370;50.132;8.626;2024-03-06T01:14:49;25.73;;;16.90;;
10643;SDS011;5370;50.132;8.626;2024-03-06T01:17:15;25.37;;;16.07;;
10643;SDS011;5370;50.132;8.626;2024-03-06T01:19:41;22.13;;;15.90;;
10643;SDS011;5370;50.132;8.626;2024-03-06T01:22:08;22.33;;;15.80;;
10643;SDS011;5370;50.132;8.626;2024-03-06T01:24:34;18.90;;;15.40;;
10643;SDS011;5370;50.132;8.626;2024-03-06T01:27:00;26.17;;;16.77;;
10643;SDS011;5370;50.132;8.626;2024-03-06T01:29:27;22.40;;;16.20;;
10643;SDS011;5370;50.132;8.626;2024-03-06T01:31:53;25.00;;;16.20;;
10643;SDS011;5370;50.132;8.626;2024-03-06T01:34:19;22.73;;;16.17;;
10643;SDS011;5370;50.132;8.626;2024-03-06T01:36:44;20.27;;;16.23;;
10643;SDS011;5370;50.132;8.626;2024-03-06T01:39:10;22.73;;;15.90;;
10643;SDS011;5370;50.132;8.626;2024-03-06T01:41:36;19.60;;;14.57;;
10643;SDS011;5370;50.132;8.626;2024-03-06T01:44:01;27.23;;;15.53;;
10643;SDS011;5370;50.132;8.626;2024-03-06T01:46:28;21.43;;;14.97;;
10643;SDS011;5370;50.132;8.626;2024-03-06T01:48:54;20.67;;;14.33;;
10643;SDS011;5370;50.132;8.626;2024-03-06T01:51:20;23.00;;;15.47;;
10643;SDS011;5370;50.132;8.626;2024-03-06T01:53:45;22.80;;;15.97;;
10643;SDS011;5370;50.132;8.626;2024-03-06T01:56:11;24.30;;;16.63;;
10643;SDS011;5370;50.132;8.626;2024-03-06T01:58:42;24.30;;;16.87;;
10643;SDS011;5370;50.132;8.626;2024-03-06T02:01:10;25.57;;;15.07;;
10643;SDS011;5370;50.132;8.626;2024-03-06T02:03:36;23.67;;;15.83;;
10643;SDS011;5370;50.132;8.626;2024-03-06T02:06:02;23.87;;;16.33;;
10643;SDS011;5370;50.132;8.626;2024-03-06T02:08:28;24.80;;;15.53;;
10643;SDS011;5370;50.132;8.626;2024-03-06T02:10:54;24.57;;;15.43;;
10643;SDS011;5370;50.132;8.626;2024-03-06T02:13:20;23.23;;;15.37;;
10643;SDS011;5370;50.132;8.626;2024-03-06T02:15:46;22.87;;;15.60;;
10643;SDS011;5370;50.132;8.626;2024-03-06T02:18:11;22.20;;;15.67;;
10643;SDS011;5370;50.132;8.626;2024-03-06T02:20:37;27.20;;;16.63;;
10643;SDS011;5370;50.132;8.626;2024-03-06T02:23:05;24.50;;;16.53;;
10643;SDS011;5370;50.132;8.626;2024-03-06T02:25:30;23.40;;;17.20;;
10643;SDS011;5370;50.132;8.626;2024-03-06T02:27:56;23.70;;;16.57;;
10643;SDS011;5370;50.132;8.626;2024-03-06T02:30:21;25.23;;;17.13;;
10643;SDS011;5370;50.132;8.626;2024-03-06T02:32:47;28.63;;;17.90;;
10643;SDS011;5370;50.132;8.626;2024-03-06T02:35:12;26.90;;;17.40;;
10643;SDS011;5370;50.132;8.626;2024-03-06T02:37:38;26.53;;;17.00;;
10643;SDS011;5370;50.132;8.626;2024-03-06T02:40:06;24.50;;;17.37;;
10643;SDS011;5370;50.132;8.626;2024-03-06T02:42:32;24.63;;;17.17;;
10643;SDS011;5370;50.132;8.626;2024-03-06T02:44:58;23.83;;;16.43;;
10643;SDS011;5370;50.132;8.626;2024-03-06T02:47:23;23.93;;;16.17;;
10643;SDS011;5370;50.132;8.626;2024-03-06T02:49:49;23.77;;;16.37;;
10643;SDS011;5370;50.132;8.626;2024-03-06T02:52:14;26.83;;;16.67;;
10643;SDS011;5370;50.132;8.626;2024-03-06T02:54:40;21.07;;;16.37;;
10643;SDS011;5370;50.132;8.626;2024-03-06T02:57:07;25.23;;;16.60;;
10643;SDS011;5370;50.132;8.626;2024-03-06T02:59:33;23.97;;;16.77;;
10643;SDS011;5370;50.132;8.626;2024-03-06T03:01:58;25.47;;;16.60;;
10643;SDS011;5370;50.132;8.626;2024-03-06T03:04:25;24.80;;;15.73;;
10643;SDS011;5370;50.132;8.626;2024-03-06T03:06:51;21.00;;;16.10;;
10643;SDS011;5370;50.132;8.626;2024-03-06T03:09:17;22.67;;;16.17;;
10643;SDS011;5370;50.132;8.626;2024-03-06T03:11:42;24.03;;;16.20;;
10643;SDS011;5370;50.132;8.626;2024-03-06T03:14:09;20.17;;;15.47;;
10643;SDS011;5370;50.132;8.626;2024-03-06T03:16:34;24.03;;;15.90;;
10643;SDS011;5370;50.132;8.626;2024-03-06T03:19:00;21.67;;;15.87;;
10643;SDS011;5370;50.132;8.626;2024-03-06T03:21:26;23.57;;;15.10;;
10643;SDS011;5370;50.132;8.626;2024-03-06T03:23:52;19.70;;;15.43;;
10643;SDS011;5370;50.132;8.626;2024-03-06T03:26:17;19.40;;;13.70;;
10643;SDS011;5370;50.132;8.626;2024-03-06T03:28:43;19.27;;;13.77;;
10643;SDS011;5370;50.132;8.626;2024-03-06T03:31:09;18.30;;;13.67;;
10643;SDS011;5370;50.132;8.626;2024-03-06T03:33:35;18.40;;;14.47;;
10643;SDS011;5370;50.132;8.626;2024-03-06T03:36:07;19.03;;;14.30;;
10643;SDS011;5370;50.132;8.626;2024-03-06T03:38:34;18.20;;;13.40;;
10643;SDS011;5370;50.132;8.626;2024-03-06T03:41:09;18.90;;;12.57;;
10643;SDS011;5370;50.132;8.626;2024-03-06T03:43:37;18.60;;;13.03;;
10643;SDS011;5370;50.132;8.626;2024-03-06T03:46:06;22.03;;;13.47;;
10643;SDS011;5370;50.132;8.626;2024-03-06T03:48:32;18.23;;;13.37;;
10643;SDS011;5370;50.132;8.626;2024-03-06T03:51:02;17.27;;;12.10;;
10643;SDS011;5370;50.132;8.626;2024-03-06T03:53:31;18.67;;;12.63;;
10643;SDS011;5370;50.132;8.626;2024-03-06T03:55:58;22.37;;;13.63;;
10643;SDS011;5370;50.132;8.626;2024-03-06T03:58:24;16.67;;;11.60;;
10643;SDS011;5370;50.132;8.626;2024-03-06T04:00:49;17.83;;;12.43;;
10643;SDS011;5370;50.132;8.626;2024-03-06T04:03:17;16.27;;;12.70;;
10643;SDS011;5370;50.132;8.626;2024-03-06T04:05:45;16.77;;;12.60;;
10643;SDS011;5370;50.132;8.626;2024-03-06T04:08:11;18.83;;;13.03;;
10643;SDS011;5370;50.132;8.626;2024-03-06T04:10:37;16.77;;;12.27;;
10643;SDS011;5370;50.132;8.626;2024-03-06T04:13:02;18.10;;;12.83;;
10643;SDS011;5370;50.132;8.626;2024-03-06T04:15:28;16.87;;;12.60;;
10643;SDS011;5370;50.132;8.626;2024-03-06T04:17:54;16.87;;;11.50;;
10643;SDS011;5370;50.132;8.626;2024-03-06T04:20:19;17.03;;;12.13;;
10643;SDS011;5370;50.132;8.626;2024-03-06T04:22:45;15.37;;;11.43;;
10643;SDS011;5370;50.132;8.626;2024-03-06T04:25:12;17.47;;;12.07;;
10643;SDS011;5370;50.132;8.626;2024-03-06T04:27:38;18.97;;;11.93;;
10643;SDS011;5370;50.132;8.626;2024-03-06T04:30:04;18.37;;;11.97;;
10643;SDS011;5370;50.132;8.626;2024-03-06T04:32:30;12.57;;;9.83;;
10643;SDS011;5370;50.132;8.626;2024-03-06T04:34:55;12.80;;;10.90;;
10643;SDS011;5370;50.132;8.626;2024-03-06T04:37:21;12.87;;;10.13;;
10643;SDS011;5370;50.132;8.626;2024-03-06T04:39:47;13.87;;;10.90;;
10643;SDS011;5370;50.132;8.626;2024-03-06T04:42:13;14.77;;;10.17;;
10643;SDS011;5370;50.132;8.626;2024-03-06T04:44:39;16.67;;;11.03;;
10643;SDS011;5370;50.132;8.626;2024-03-06T04:47:04;15.23;;;11.20;;
10643;SDS011;5370;50.132;8.626;2024-03-06T04:49:33;12.60;;;10.70;;
10643;SDS011;5370;50.132;8.626;2024-03-06T04:52:01;15.17;;;10.90;;
10643;SDS011;5370;50.132;8.626;2024-03-06T04:54:28;14.47;;;9.87;;
10643;SDS011;5370;50.132;8.626;2024-03-06T04:56:54;12.90;;;9.70;;
10643;SDS011;5370;50.132;8.626;2024-03-06T04:59:20;14.67;;;9.97;;
10643;SDS011;5370;50.132;8.626;2024-03-06T05:01:45;13.40;;;9.30;;
10643;SDS011;5370;50.132;8.626;2024-03-06T05:04:11;11.73;;;9.00;;
10643;SDS011;5370;50.132;8.626;2024-03-06T05:06:37;13.43;;;9.13;;
10643;SDS011;5370;50.132;8.626;2024-03-06T05:09:02;16.93;;;9.77;;
10643;SDS011;5370;50.132;8.626;2024-03-06T05:11:29;13.47;;;10.27;;
10643;SDS011;5370;50.132;8.626;2024-03-06T05:13:55;12.07;;;9.43;;
10643;SDS011;5370;50.132;8.626;2024-03-06T05:16:22;13.80;;;10.77;;
10643;SDS011;5370;50.132;8.626;2024-03-06T05:18:49;15.90;;;10.63;;
10643;SDS011;5370;50.132;8.626;2024-03-06T05:21:14;15.73;;;9.97;;
10643;SDS011;5370;50.132;8.626;2024-03-06T05:23:40;13.80;;;9.83;;
10643;SDS011;5370;50.132;8.626;2024-03-06T05:26:06;13.60;;;10.20;;
10643;SDS011;5370;50.132;8.626;2024-03-06T05:28:32;14.63;;;10.97;;
10643;SDS011;5370;50.132;8.626;2024-03-06T05:30:58;15.70;;;10.70;;
10643;SDS011;5370;50.132;8.626;2024-03-06T05:33:25;14.10;;;10.80;;
10643;SDS011;5370;50.132;8.626;2024-03-06T05:35:53;15.33;;;11.00;;
10643;SDS011;5370;50.132;8.626;2024-03-06T05:38:18;12.43;;;10.33;;
10643;SDS011;5370;50.132;8.626;2024-03-06T05:40:44;15.00;;;10.17;;
10643;SDS011;5370;50.132;8.626;2024-03-06T05:43:10;14.40;;;9.97;;
10643;SDS011;5370;50.132;8.626;2024-03-06T05:45:36;13.37;;;10.43;;
10643;SDS011;5370;50.132;8.626;2024-03-06T05:48:01;13.37;;;10.40;;
10643;SDS011;5370;50.132;8.626;2024-03-06T05:50:29;13.60;;;9.90;;
10643;SDS011;5370;50.132;8.626;2024-03-06T05:52:55;14.90;;;9.77;;
10643;SDS011;5370;50.132;8.626;2024-03-06T05:55:22;12.20;;;10.00;;
10643;SDS011;5370;50.132;8.626;2024-03-06T05:57:48;15.70;;;11.10;;
10643;SDS011;5370;50.132;8.626;2024-03-06T06:00:14;12.67;;;10.20;;
10643;SDS011;5370;50.132;8.626;2024-03-06T06:02:43;15.67;;;10.60;;
10643;SDS011;5370;50.132;8.626;2024-03-06T06:05:09;13.57;;;10.30;;
10643;SDS011;5370;50.132;8.626;2024-03-06T06:07:35;13.53;;;10.43;;
10643;SDS011;5370;50.132;8.626;2024-03-06T06:10:02;14.57;;;10.90;;
10643;SDS011;5370;50.132;8.626;2024-03-06T06:12:31;14.63;;;11.03;;
10643;SDS011;5370;50.132;8.626;2024-03-06T06:14:56;15.53;;;10.80;;
10643;SDS011;5370;50.132;8.626;2024-03-06T06:17:22;12.50;;;10.53;;
10643;SDS011;5370;50.132;8.626;2024-03-06T06:19:47;16.37;;;11.40;;
10643;SDS011;5370;50.132;8.626;2024-03-06T06:22:13;13.50;;;11.27;;
10643;SDS011;5370;50.132;8.626;2024-03-06T06:24:38;14.90;;;10.90;;
10643;SDS011;5370;50.132;8.626;2024-03-06T06:27:05;14.90;;;10.80;;
10643;SDS011;5370;50.132;8.626;2024-03-06T06:29:31;15.07;;;11.13;;
10643;SDS011;5370;50.132;8.626;2024-03-06T06:31:56;14.30;;;11.10;;
10643;SDS011;5370;50.132;8.626;2024-03-06T06:34:22;16.00;;;10.07;;
10643;SDS011;5370;50.132;8.626;2024-03-06T06:36:48;14.73;;;10.97;;
10643;SDS011;5370;50.132;8.626;2024-03-06T06:39:13;14.07;;;11.03;;
10643;SDS011;5370;50.132;8.626;2024-03-06T06:41:39;13.93;;;10.67;;
10643;SDS011;5370;50.132;8.626;2024-03-06T06:44:04;12.27;;;11.03;;
10643;SDS011;5370;50.132;8.626;2024-03-06T06:46:30;13.43;;;10.37;;
10643;SDS011;5370;50.132;8.626;2024-03-06T06:48:56;13.03;;;10.23;;
10643;SDS011;5370;50.132;8.626;2024-03-06T06:51:21;12.23;;;10.00;;
10643;SDS011;5370;50.132;8.626;2024-03-06T06:53:48;15.83;;;11.20;;
10643;SDS011;5370;50.132;8.626;2024-03-06T06:56:14;13.90;;;10.27;;
10643;SDS011;5370;50.132;8.626;2024-03-06T06:58:39;11.03;;;9.80;;
10643;SDS011;5370;50.132;8.626;2024-03-06T07:01:07;14.10;;;9.73;;
10643;SDS011;5370;50.132;8.626;2024-03-06T07:03:33;14.93;;;9.50;;
10643;SDS011;5370;50.132;8.626;2024-03-06T07:05:58;10.97;;;8.77;;
10643;SDS011;5370;50.132;8.626;2024-03-06T07:08:24;11.77;;;9.20;;
10643;SDS011;5370;50.132;8.626;2024-03-06T07:10:50;13.07;;;8.97;;
10643;SDS011;5370;50.132;8.626;2024-03-06T07:13:16;12.00;;;9.13;;
10643;SDS011;5370;50.132;8.626;2024-03-06T07:15:42;12.10;;;8.03;;
10643;SDS011;5370;50.132;8.626;2024-03-06T07:18:08;16.33;;;9.53;;
10643;SDS011;5370;50.132;8.626;2024-03-06T07:20:33;9.77;;;8.40;;
10643;SDS011;5370;50.132;8.626;2024-03-06T07:22:59;11.33;;;8.73;;
10643;SDS011;5370;50.132;8.626;2024-03-06T07:25:24;11.90;;;8.37;;
10643;SDS011;5370;50.132;8.626;2024-03-06T07:27:50;11.90;;;8.37;;
10643;SDS011;5370;50.132;8.626;2024-03-06T07:30:16;18.63;;;8.60;;
10643;SDS011;5370;50.132;8.626;2024-03-06T07:32:41;11.97;;;8.80;;
10643;SDS011;5370;50.132;8.626;2024-03-06T07:35:07;10.63;;;8.77;;
10643;SDS011;5370;50.132;8.626;2024-03-06T07:37:32;10.83;;;7.80;;
10643;SDS011;5370;50.132;8.626;2024-03-06T07:39:58;12.63;;;8.60;;
10643;SDS011;5370;50.132;8.626;2024-03-06T07:42:25;10.13;;;8.33;;
10643;SDS011;5370;50.132;8.626;2024-03-06T07:44:51;15.00;;;9.60;;
10643;SDS011;5370;50.132;8.626;2024-03-06T07:47:16;11.53;;;9.03;;
10643;SDS011;5370;50.132;8.626;2024-03-06T07:49:42;16.63;;;9.33;;
10643;SDS011;5370;50.132;8.626;2024-03-06T07:52:09;15.20;;;8.57;;
10643;SDS011;5370;50.132;8.626;2024-03-06T07:54:35;10.53;;;7.83;;
10643;SDS011;5370;50.132;8.626;2024-03-06T07:57:01;13.70;;;8.27;;
10643;SDS011;5370;50.132;8.626;2024-03-06T07:59:26;20.57;;;13.63;;
10643;SDS011;5370;50.132;8.626;2024-03-06T08:01:52;40.70;;;28.93;;
10643;SDS011;5370;50.132;8.626;2024-03-06T08:04:18;23.77;;;14.83;;
10643;SDS011;5370;50.132;8.626;2024-03-06T08:06:43;16.20;;;8.43;;
10643;SDS011;5370;50.132;8.626;2024-03-06T08:09:09;12.87;;;8.37;;
10643;SDS011;5370;50.132;8.626;2024-03-06T08:11:34;12.30;;;7.80;;
10643;SDS011;5370;50.132;8.626;2024-03-06T08:14:00;12.70;;;8.70;;
10643;SDS011;5370;50.132;8.626;2024-03-06T08:16:27;15.70;;;9.80;;
10643;SDS011;5370;50.132;8.626;2024-03-06T08:18:53;12.60;;;9.27;;
10643;SDS011;5370;50.132;8.626;2024-03-06T08:21:20;12.27;;;9.30;;
10643;SDS011;5370;50.132;8.626;2024-03-06T08:23:45;15.03;;;10.00;;
10643;SDS011;5370;50.132;8.626;2024-03-06T08:26:12;12.33;;;10.03;;
10643;SDS011;5370;50.132;8.626;2024-03-06T08:28:38;15.77;;;10.07;;
10643;SDS011;5370;50.132;8.626;2024-03-06T08:31:03;15.37;;;10.70;;
10643;SDS011;5370;50.132;8.626;2024-03-06T08:33:29;16.30;;;11.10;;
10643;SDS011;5370;50.132;8.626;2024-03-06T08:35:54;27.47;;;17.97;;
10643;SDS011;5370;50.132;8.626;2024-03-06T08:38:20;15.77;;;12.30;;
10643;SDS011;5370;50.132;8.626;2024-03-06T08:40:46;16.83;;;13.63;;
10643;SDS011;5370;50.132;8.626;2024-03-06T08:43:12;28.10;;;19.30;;
10643;SDS011;5370;50.132;8.626;2024-03-06T08:45:38;20.33;;;14.93;;
10643;SDS011;5370;50.132;8.626;2024-03-06T08:48:04;21.37;;;14.10;;
10643;SDS011;5370;50.132;8.626;2024-03-06T08:50:30;18.43;;;13.07;;
10643;SDS011;5370;50.132;8.626;2024-03-06T08:52:56;18.87;;;14.33;;
10643;SDS011;5370;50.132;8.626;2024-03-06T08:55:21;18.50;;;14.10;;
10643;SDS011;5370;50.132;8.626;2024-03-06T08:57:47;20.90;;;15.97;;
10643;SDS011;5370;50.132;8.626;2024-03-06T09:00:13;19.80;;;13.70;;
10643;SDS011;5370;50.132;8.626;2024-03-06T09:02:39;22.37;;;15.80;;
10643;SDS011;5370;50.132;8.626;2024-03-06T09:05:05;26.57;;;16.03;;
10643;SDS011;5370;50.132;8.626;2024-03-06T09:07:32;22.73;;;16.73;;
10643;SDS011;5370;50.132;8.626;2024-03-06T09:10:02;26.50;;;17.17;;
10643;SDS011;5370;50.132;8.626;2024-03-06T09:12:29;23.60;;;16.70;;
10643;SDS011;5370;50.132;8.626;2024-03-06T09:14:55;23.93;;;16.17;;
10643;SDS011;5370;50.132;8.626;2024-03-06T09:17:20;25.33;;;14.27;;
10643;SDS011;5370;50.132;8.626;2024-03-06T09:19:46;27.67;;;17.20;;
10643;SDS011;5370;50.132;8.626;2024-03-06T09:22:11;26.00;;;16.70;;
10643;SDS011;5370;50.132;8.626;2024-03-06T09:24:37;26.30;;;17.97;;
10643;SDS011;5370;50.132;8.626;2024-03-06T09:27:03;29.00;;;16.23;;
10643;SDS011;5370;50.132;8.626;2024-03-06T09:29:29;28.20;;;18.63;;
10643;SDS011;5370;50.132;8.626;2024-03-06T09:31:55;26.67;;;19.37;;
10643;SDS011;5370;50.132;8.626;2024-03-06T09:34:20;23.33;;;17.50;;
10643;SDS011;5370;50.132;8.626;2024-03-06T09:36:48;26.73;;;18.97;;
10643;SDS011;5370;50.132;8.626;2024-03-06T09:39:14;27.20;;;19.67;;
10643;SDS011;5370;50.132;8.626;2024-03-06T09:41:48;20.93;;;14.47;;
10643;SDS011;5370;50.132;8.626;2024-03-06T09:44:21;30.83;;;20.13;;
10643;SDS011;5370;50.132;8.626;2024-03-06T09:46:47;32.90;;;18.47;;
10643;SDS011;5370;50.132;8.626;2024-03-06T09:49:15;28.50;;;19.93;;
10643;SDS011;5370;50.132;8.626;2024-03-06T09:51:45;27.93;;;20.50;;
10643;SDS011;5370;50.132;8.626;2024-03-06T09:54:12;28.40;;;17.43;;
10643;SDS011;5370;50.132;8.626;2024-03-06T09:56:42;27.57;;;20.17;;
10643;SDS011;5370;50.132;8.626;2024-03-06T09:59:08;29.00;;;19.70;;
10643;SDS011;5370;50.132;8.626;2024-03-06T10:01:35;30.07;;;20.30;;
10643;SDS011;5370;50.132;8.626;2024-03-06T10:04:21;26.43;;;17.80;;
10643;SDS011;5370;50.132;8.626;2024-03-06T10:06:55;29.10;;;20.27;;
10643;SDS011;5370;50.132;8.626;2024-03-06T10:09:22;30.63;;;21.33;;
10643;SDS011;5370;50.132;8.626;2024-03-06T10:11:48;28.80;;;20.03;;
10643;SDS011;5370;50.132;8.626;2024-03-06T10:14:15;35.60;;;21.77;;
10643;SDS011;5370;50.132;8.626;2024-03-06T10:19:19;23.87;;;15.33;;
10643;SDS011;5370;50.132;8.626;2024-03-06T10:21:48;27.80;;;17.70;;
10643;SDS011;5370;50.132;8.626;2024-03-06T10:24:18;22.83;;;16.50;;
10643;SDS011;5370;50.132;8.626;2024-03-06T10:26:49;19.03;;;12.70;;
10643;SDS011;5370;50.132;8.626;2024-03-06T10:29:18;16.07;;;10.83;;
10643;SDS011;5370;50.132;8.626;2024-03-06T10:31:48;19.63;;;13.63;;
10643;SDS011;5370;50.132;8.626;2024-03-06T10:34:17;17.63;;;12.30;;
10643;SDS011;5370;50.132;8.626;2024-03-06T10:36:43;19.27;;;13.17;;
10643;SDS011;5370;50.132;8.626;2024-03-06T10:39:10;20.93;;;12.37;;
10643;SDS011;5370;50.132;8.626;2024-03-06T10:41:39;20.03;;;11.90;;
10643;SDS011;5370;50.132;8.626;2024-03-06T10:44:06;14.33;;;9.87;;
10643;SDS011;5370;50.132;8.626;2024-03-06T10:46:38;16.60;;;10.87;;
10643;SDS011;5370;50.132;8.626;2024-03-06T10:49:08;18.40;;;12.07;;
10643;SDS011;5370;50.132;8.626;2024-03-06T10:51:36;18.23;;;13.60;;
10643;SDS011;5370;50.132;8.626;2024-03-06T10:54:07;15.77;;;9.53;;
10643;SDS011;5370;50.132;8.626;2024-03-06T10:56:34;16.77;;;11.60;;
10643;SDS011;5370;50.132;8.626;2024-03-06T10:58:59;16.40;;;12.53;;
10643;SDS011;5370;50.132;8.626;2024-03-06T11:01:26;15.83;;;10.87;;
10643;SDS011;5370;50.132;8.626;2024-03-06T11:03:57;17.03;;;13.30;;
10643;SDS011;5370;50.132;8.626;2024-03-06T11:06:25;16.73;;;9.93;;
10643;SDS011;5370;50.132;8.626;2024-03-06T11:08:51;22.30;;;14.07;;
10643;SDS011;5370;50.132;8.626;2024-03-06T11:11:20;23.40;;;15.47;;
10643;SDS011;5370;50.132;8.626;2024-03-06T11:13:49;19.00;;;13.33;;
10643;SDS011;5370;50.132;8.626;2024-03-06T11:16:20;22.00;;;15.93;;
10643;SDS011;5370;50.132;8.626;2024-03-06T11:18:52;20.93;;;15.03;;
10643;SDS011;5370;50.132;8.626;2024-03-06T11:21:32;23.83;;;16.53;;
10643;SDS011;5370;50.132;8.626;2024-03-06T11:26:57;23.67;;;14.73;;
10643;SDS011;5370;50.132;8.626;2024-03-06T11:29:27;21.77;;;14.67;;
10643;SDS011;5370;50.132;8.626;2024-03-06T11:32:01;21.30;;;13.97;;
10643;SDS011;5370;50.132;8.626;2024-03-06T11:34:28;22.17;;;15.67;;
10643;SDS011;5370;50.132;8.626;2024-03-06T11:36:58;20.10;;;15.07;;
10643;SDS011;5370;50.132;8.626;2024-03-06T11:39:27;21.93;;;15.13;;
10643;SDS011;5370;50.132;8.626;2024-03-06T11:41:55;22.90;;;15.50;;
10643;SDS011;5370;50.132;8.626;2024-03-06T11:44:21;22.23;;;14.77;;
10643;SDS011;5370;50.132;8.626;2024-03-06T11:46:48;21.40;;;15.03;;
10643;SDS011;5370;50.132;8.626;2024-03-06T11:49:28;20.17;;;14.97;;
10643;SDS011;5370;50.132;8.626;2024-03-06T11:51:58;22.40;;;14.63;;
10643;SDS011;5370;50.132;8.626;2024-03-06T11:54:31;21.43;;;15.47;;
10643;SDS011;5370;50.132;8.626;2024-03-06T11:56:59;20.63;;;15.27;;
10643;SDS011;5370;50.132;8.626;2024-03-06T11:59:29;21.37;;;15.23;;
10643;SDS011;5370;50.132;8.626;2024-03-06T12:01:59;20.73;;;14.93;;
10643;SDS011;5370;50.132;8.626;2024-03-06T12:04:32;17.90;;;12.37;;
10643;SDS011;5370;50.132;8.626;2024-03-06T12:07:03;19.90;;;15.40;;
10643;SDS011;5370;50.132;8.626;2024-03-06T12:09:34;21.50;;;14.57;;
10643;SDS011;5370;50.132;8.626;2024-03-06T12:12:00;21.73;;;15.40;;
10643;SDS011;5370;50.132;8.626;2024-03-06T12:14:27;18.37;;;11.80;;
10643;SDS011;5370;50.132;8.626;2024-03-06T12:17:00;16.43;;;9.57;;
10643;SDS011;5370;50.132;8.626;2024-03-06T12:19:31;17.30;;;11.97;;
10643;SDS011;5370;50.132;8.626;2024-03-06T12:22:01;15.57;;;11.40;;
10643;SDS011;5370;50.132;8.626;2024-03-06T12:24:29;16.63;;;11.70;;
10643;SDS011;5370;50.132;8.626;2024-03-06T12:27:01;15.90;;;11.27;;
10643;SDS011;5370;50.132;8.626;2024-03-06T12:29:30;17.27;;;12.80;;
10643;SDS011;5370;50.132;8.626;2024-03-06T12:31:59;19.67;;;12.13;;
10643;SDS011;5370;50.132;8.626;2024-03-06T12:34:25;14.43;;;9.07;;
10643;SDS011;5370;50.132;8.626;2024-03-06T12:36:51;17.73;;;10.03;;
10643;SDS011;5370;50.132;8.626;2024-03-06T12:39:17;23.83;;;12.27;;
10643;SDS011;5370;50.132;8.626;2024-03-06T12:41:46;24.47;;;14.27;;
10643;SDS011;5370;50.132;8.626;2024-03-06T12:44:12;21.97;;;13.27;;
10643;SDS011;5370;50.132;8.626;2024-03-06T12:46:38;22.33;;;16.00;;
10643;SDS011;5370;50.132;8.626;2024-03-06T12:49:03;19.73;;;11.27;;
10643;SDS011;5370;50.132;8.626;2024-03-06T12:51:29;16.57;;;10.47;;
10643;SDS011;5370;50.132;8.626;2024-03-06T12:53:54;21.07;;;14.93;;
10643;SDS011;5370;50.132;8.626;2024-03-06T12:56:20;23.83;;;15.13;;
10643;SDS011;5370;50.132;8.626;2024-03-06T12:58:46;24.17;;;15.43;;
10643;SDS011;5370;50.132;8.626;2024-03-06T13:01:11;19.40;;;12.23;;
10643;SDS011;5370;50.132;8.626;2024-03-06T13:03:37;16.77;;;10.97;;
10643;SDS011;5370;50.132;8.626;2024-03-06T13:06:03;22.23;;;15.03;;
10643;SDS011;5370;50.132;8.626;2024-03-06T13:08:30;19.63;;;11.00;;
10643;SDS011;5370;50.132;8.626;2024-03-06T13:10:56;22.30;;;13.77;;
10643;SDS011;5370;50.132;8.626;2024-03-06T13:13:22;19.63;;;12.87;;
10643;SDS011;5370;50.132;8.626;2024-03-06T13:15:53;22.33;;;14.17;;
10643;SDS011;5370;50.132;8.626;2024-03-06T13:18:18;19.37;;;15.17;;
10643;SDS011;5370;50.132;8.626;2024-03-06T13:20:44;21.50;;;14.97;;
10643;SDS011;5370;50.132;8.626;2024-03-06T13:23:10;23.23;;;16.10;;
10643;SDS011;5370;50.132;8.626;2024-03-06T13:25:36;16.23;;;10.07;;
10643;SDS011;5370;50.132;8.626;2024-03-06T13:28:02;21.33;;;14.33;;
10643;SDS011;5370;50.132;8.626;2024-03-06T13:30:28;22.83;;;13.67;;
10643;SDS011;5370;50.132;8.626;2024-03-06T13:32:54;21.73;;;14.93;;
10643;SDS011;5370;50.132;8.626;2024-03-06T13:35:20;20.57;;;14.80;;
10643;SDS011;5370;50.132;8.626;2024-03-06T13:37:45;26.30;;;13.57;;
10643;SDS011;5370;50.132;8.626;2024-03-06T13:40:12;22.23;;;14.83;;
10643;SDS011;5370;50.132;8.626;2024-03-06T13:42:38;22.67;;;16.10;;
10643;SDS011;5370;50.132;8.626;2024-03-06T13:45:08;18.87;;;12.83;;
10643;SDS011;5370;50.132;8.626;2024-03-06T13:47:36;20.27;;;14.53;;
10643;SDS011;5370;50.132;8.626;2024-03-06T13:50:03;18.63;;;13.37;;
10643;SDS011;5370;50.132;8.626;2024-03-06T13:52:31;20.23;;;13.37;;
10643;SDS011;5370;50.132;8.626;2024-03-06T13:54:57;22.47;;;14.53;;
10643;SDS011;5370;50.132;8.626;2024-03-06T13:57:22;19.53;;;13.57;;
10643;SDS011;5370;50.132;8.626;2024-03-06T13:59:48;22.90;;;14.27;;
10643;SDS011;5370;50.132;8.626;2024-03-06T14:02:13;19.33;;;11.67;;
10643;SDS011;5370;50.132;8.626;2024-03-06T14:04:40;19.47;;;14.30;;
10643;SDS011;5370;50.132;8.626;2024-03-06T14:07:05;23.27;;;14.47;;
10643;SDS011;5370;50.132;8.626;2024-03-06T14:09:32;20.80;;;15.10;;
10643;SDS011;5370;50.132;8.626;2024-03-06T14:11:57;17.23;;;13.50;;
10643;SDS011;5370;50.132;8.626;2024-03-06T14:14:23;20.67;;;13.50;;
10643;SDS011;5370;50.132;8.626;2024-03-06T14:16:49;20.77;;;14.10;;
10643;SDS011;5370;50.132;8.626;2024-03-06T14:19:14;19.93;;;12.90;;
10643;SDS011;5370;50.132;8.626;2024-03-06T14:21:40;20.27;;;11.63;;
10643;SDS011;5370;50.132;8.626;2024-03-06T14:24:05;18.23;;;13.40;;
10643;SDS011;5370;50.132;8.626;2024-03-06T14:26:31;19.23;;;9.83;;
10643;SDS011;5370;50.132;8.626;2024-03-06T14:28:57;19.90;;;12.20;;
10643;SDS011;5370;50.132;8.626;2024-03-06T14:31:23;17.73;;;13.57;;
10643;SDS011;5370;50.132;8.626;2024-03-06T14:33:49;16.63;;;11.63;;
10643;SDS011;5370;50.132;8.626;2024-03-06T14:36:15;15.63;;;8.57;;
10643;SDS011;5370;50.132;8.626;2024-03-06T14:38:41;14.87;;;8.63;;